Flight Track Log - Related Links

Times and Time Zones

All times are in EST time to prevent confusion due to time zone crossing. See the EJM826 flight status page for this flight to view local times or setup timezone preferences in your user account.

Time Position Orientation Groundspeed Altitude Reporting Facility
EST Latitude Longitude Course Direction KTS MPH feet Rate Location/Type
Wed 15:35:09 39.6000 -107.0056 235° Southwest 206 237 10,600  Level Denver Center
Wed 15:36:10 39.6514 -107.0372 335° Northwest 221 254 14,200 2,115 Climbing Denver Center
Wed 15:37:11 39.7119 -107.0686 338° Northwest 264 304 14,900 1,756 Climbing Denver Center
Wed 15:38:00 39.8853 -105.6158 78° East  Level Estimated
Wed 15:38:13 39.7828 -106.9886 41° Northeast 329 379 17,800  Level Denver Center
Wed 15:39:00 39.8952 -105.4488 86° East  Level FlightAware Approximate
Wed 15:39:14 39.8278 -106.9003 56° Northeast 296 341 19,900  Level Denver Center
Wed 15:40:16 39.8556 -106.7831 73° East 356 410 22,600 2,488 Climbing Denver Center
Wed 15:41:17 39.8597 -106.6558 88° East 355 409 25,000 1,854 Climbing Denver Center
Wed 15:42:19 39.8633 -106.5219 88° East 364 419 26,400 1,756 Climbing Denver Center
Wed 15:43:20 39.8675 -106.3858 88° East 384 442 28,600 1,869 Climbing Denver Center
Wed 15:44:21 39.8703 -106.2461 88° East 385 443 30,200 1,415 Climbing Denver Center
Wed 15:45:23 39.8739 -106.1039 88° East 393 452 31,500 1,463 Climbing Denver Center
Wed 15:46:24 39.8781 -105.9275 88° East 405 466 33,200 1,512 Climbing Denver Center
Wed 15:47:26 39.8806 -105.7783 89° East 412 474 34,600 1,268 Climbing Denver Center
Wed 15:48:27 39.8831 -105.6278 89° East 417 480 35,800 1,366 Climbing Denver Center
Wed 15:49:29 39.8856 -105.4797 89° East 410 472 37,400 1,038 Climbing Denver Center
Wed 15:51:32 39.8883 -105.1742 89° East 425 489 39,000 750 Climbing Denver Center
Wed 15:52:33 39.8900 -105.0144 89° East 438 504 39,700 878 Climbing Denver Center
Wed 15:53:35 39.8922 -104.8550 89° East 438 504 40,800 634 Climbing Denver Center
Wed 15:54:36 39.8967 -104.6936 88° East 437 503 41,000 98 Climbing Denver Center
Wed 15:55:38 39.9278 -104.5267 76° East 475 547 41,000  Level Denver Center
Wed 15:56:39 39.9586 -104.3569 77° East 478 550 41,000  Level Denver Center
Wed 15:57:41 39.9950 -104.1550 77° East 478 550 41,000  Level Denver Center
Wed 15:58:42 40.0250 -103.9864 77° East 477 549 41,000  Level Denver Center
Wed 15:59:44 40.0542 -103.8208 77° East 473 544 41,000  Level Denver Center
Wed 16:00:45 40.0847 -103.6558 76° East 463 533 41,000  Level Denver Center
Wed 16:01:47 40.1150 -103.4892 77° East 469 540 41,000  Level Denver Center
Wed 16:02:48 40.1436 -103.3214 77° East 473 544 41,000  Level Denver Center
Wed 16:03:50 40.1725 -103.1525 77° East 478 550 41,000  Level Denver Center
Wed 16:05:04 40.2064 -102.9500 78° East 476 548 41,000  Level Denver Center
Wed 16:06:05 40.2414 -102.7475 77° East 476 548 41,000  Level Denver Center
Wed 16:07:06 40.2617 -102.6233 78° East 477 549 41,000  Level Denver Center
Wed 16:08:08 40.2978 -102.4069 78° East 476 548 41,000  Level Denver Center
Wed 16:09:10 40.3236 -102.2456 78° East 475 547 41,000  Level Denver Center
Wed 16:10:11 40.3547 -102.0558 78° East 477 549 41,000  Level Denver Center
Wed 16:11:13 40.3822 -101.8928 77° East 478 550 41,000  Level Denver Center
Wed 16:12:14 40.4092 -101.7278 78° East 482 555 41,000  Level Denver Center
Wed 16:13:16 40.4386 -101.5342 79° East 485 558 41,000  Level Denver Center
Wed 16:14:17 40.4644 -101.3681 78° East 486 559 41,000  Level Denver Center
Wed 16:15:19 40.4939 -101.1750 79° East 485 558 41,000  Level Denver Center
Wed 16:16:32 40.5186 -101.0081 79° East 488 562 41,000  Level Denver Center
Wed 16:17:46 40.5525 -100.7861 79° East 489 563 41,000  Level Denver Center
Wed 16:18:48 40.5853 -100.5633 79° East 492 566 41,000  Level Denver Center
Wed 16:19:49 40.6097 -100.3942 79° East 496 571 41,000  Level Denver Center
Wed 16:20:51 40.6389 -100.1972 79° East 494 568 41,000  Level Denver Center
Wed 16:21:53 40.6622 -100.0278 80° East 494 568 41,000  Level Denver Center
Wed 16:22:54 40.6883 -99.8433 79° East 498 573 41,000  Level Denver Center
Wed 16:23:56 40.7131 -99.6642 80° East 499 574 41,000  Level Denver Center
Wed 16:24:57 40.7383 -99.4847 79° East 498 573 41,000  Level Denver Center
Wed 16:25:59 40.7636 -99.3061 79° East 498 573 41,000  Level Denver Center
Wed 16:27:00 40.7892 -99.1125 80° East 497 572 41,000  Level Denver Center
Wed 16:28:02 40.8156 -98.9119 80° East 497 572 41,000  Level Denver Center
Wed 16:29:04 40.8389 -98.7356 80° East 498 573 41,000  Level Denver Center
Wed 16:30:05 40.8617 -98.5578 80° East 498 573 41,000  Level Denver Center
Wed 16:31:23 40.8942 -98.3078 80° East 498 573 41,000  Level Minneapolis Center
Wed 16:32:24 40.9158 -98.1275 81° East 499 574 41,000  Level Minneapolis Center
Wed 16:33:25 40.9378 -97.9467 81° East 500 575 41,000  Level Minneapolis Center
Wed 16:34:27 40.9603 -97.7647 81° East 501 577 41,000  Level Minneapolis Center
Wed 16:35:28 40.9825 -97.5836 81° East 500 575 41,000  Level Minneapolis Center
Wed 16:36:29 41.0039 -97.4014 81° East 501 577 41,000  Level Minneapolis Center
Wed 16:37:31 41.0264 -97.2119 81° East 501 577 41,000  Level Minneapolis Center
Wed 16:38:32 41.0464 -97.0297 82° East 502 578 41,000  Level Minneapolis Center
Wed 16:39:34 41.0681 -96.8478 81° East 501 577 41,000  Level Minneapolis Center
Wed 16:40:35 41.0889 -96.6647 81° East 503 579 41,000  Level Minneapolis Center
Wed 16:41:36 41.1092 -96.4825 82° East 503 579 41,000  Level Minneapolis Center
Wed 16:42:38 41.1325 -96.2692 82° East 502 578 41,000  Level Minneapolis Center
Wed 16:43:39 41.1522 -96.0878 82° East 498 573 41,000  Level Minneapolis Center
Wed 16:44:41 41.1717 -95.9047 82° East 500 575 41,000  Level Minneapolis Center
Wed 16:45:42 41.1897 -95.7219 82° East 499 574 41,000  Level Minneapolis Center
Wed 16:46:44 41.2069 -95.5478 82° East 497 572 41,000  Level Minneapolis Center
Wed 16:47:45 41.2247 -95.3675 82° East 495 570 41,000  Level Minneapolis Center
Wed 16:48:46 41.2475 -95.1486 82° East 499 574 41,000  Level Minneapolis Center
Wed 16:49:48 41.2631 -94.9683 83° East 496 571 41,000  Level Minneapolis Center
Wed 16:50:49 41.2817 -94.7881 82° East 494 568 41,000  Level Minneapolis Center
Wed 16:51:51 41.2983 -94.6067 83° East 494 568 41,000  Level Minneapolis Center
Wed 16:52:52 41.3147 -94.4272 83° East 492 566 41,000  Level Minneapolis Center
Wed 16:53:54 41.3306 -94.2467 83° East 492 566 41,000  Level Minneapolis Center
Wed 16:54:55 41.3483 -94.0447 83° East 493 567 41,000  Level Minneapolis Center
Wed 16:55:57 41.3639 -93.8650 83° East 492 566 41,000  Level Minneapolis Center
Wed 16:56:58 41.3800 -93.6839 83° East 493 567 41,000  Level Minneapolis Center
Wed 16:57:59 41.3956 -93.5028 83° East 495 570 41,000  Level Minneapolis Center
Wed 16:59:01 41.4125 -93.3206 83° East 496 571 41,000  Level Minneapolis Center
Wed 17:00:02 41.4267 -93.1392 84° East 495 570 41,000  Level Minneapolis Center
Wed 17:01:04 41.4403 -92.9564 84° East 495 570 41,000  Level Minneapolis Center
Wed 17:02:06 41.4556 -92.7731 84° East 496 571 41,000  Level Minneapolis Center
Wed 17:03:07 41.4697 -92.5883 84° East 500 575 41,000  Level Minneapolis Center
Wed 17:03:43 41.4775 -92.4778 85° East 500 575 41,000  Level Chicago Center
Wed 17:04:44 41.4939 -92.2617 84° East 501 577 41,000  Level Chicago Center
Wed 17:05:45 41.5069 -92.0797 84° East 500 575 41,000  Level Chicago Center
Wed 17:06:47 41.5200 -91.8967 84° East 501 577 41,000  Level Chicago Center
Wed 17:07:48 41.5319 -91.7131 85° East 502 578 41,000  Level Chicago Center
Wed 17:08:50 41.5447 -91.5269 85° East 506 582 41,000  Level Chicago Center
Wed 17:09:51 41.5569 -91.3406 85° East 508 585 41,000  Level Chicago Center
Wed 17:10:52 41.5714 -91.1175 85° East 508 585 41,000  Level Chicago Center
Wed 17:11:54 41.5825 -90.9292 85° East 512 589 41,000  Level Chicago Center
Wed 17:12:55 41.5942 -90.7403 85° East 514 592 41,000  Level Chicago Center
Wed 17:13:56 41.6044 -90.5564 86° East 517 595 41,000  Level Chicago Center
Wed 17:14:57 41.6153 -90.3633 86° East 519 597 41,000  Level Chicago Center
Wed 17:15:59 41.6275 -90.1725 85° East 516 594 41,000  Level Chicago Center
Wed 17:17:00 41.6375 -89.9797 86° East 517 595 41,000  Level Chicago Center
Wed 17:18:01 41.6467 -89.7864 86° East 518 596 41,000  Level Chicago Center
Wed 17:19:03 41.6583 -89.5536 86° East 519 597 41,000  Level Chicago Center
Wed 17:20:04 41.6672 -89.3647 86° East 517 595 41,000  Level Chicago Center
Wed 17:21:05 41.6758 -89.1714 87° East 522 601 41,000  Level Chicago Center
Wed 17:22:06 41.6842 -88.9792 87° East 519 597 41,000  Level Chicago Center
Wed 17:23:08 41.6933 -88.7864 86° East 521 600 41,000  Level Chicago Center
Wed 17:24:09 41.7008 -88.5911 87° East 523 602 41,000  Level Chicago Center
Wed 17:25:10 41.7086 -88.3961 87° East 524 603 41,000  Level Chicago Center
Wed 17:26:11 41.7158 -88.1992 87° East 525 604 41,000  Level Chicago Center
Wed 17:27:13 41.7233 -88.0017 87° East 524 603 41,000  Level Chicago Center
Wed 17:28:14 41.7294 -87.8050 88° East 523 602 41,000  Level Chicago Center
Wed 17:29:15 41.7358 -87.6039 87° East 534 615 41,000  Level Chicago Center
Wed 17:30:16 41.7425 -87.3672 88° East 530 610 41,000  Level Chicago Center
Wed 17:31:18 41.7492 -87.1700 87° East 530 610 41,000  Level Chicago Center
Wed 17:32:19 41.7542 -86.9733 88° East 529 609 41,000  Level Chicago Center
Wed 17:33:20 41.7592 -86.7756 88° East 531 611 41,000  Level Chicago Center
Wed 17:34:21 41.7625 -86.5978 89° East 531 611 41,000  Level Chicago Center
Wed 17:35:23 41.7672 -86.4003 88° East 530 610 41,000  Level Chicago Center
Wed 17:36:24 41.7850 -86.1644 84° East 530 610 41,000  Level Chicago Center
Wed 17:37:25 41.8058 -85.9703 82° East 527 606 41,000  Level Chicago Center
Wed 17:38:27 41.8247 -85.7722 83° East 534 615 41,000  Level Chicago Center
Wed 17:39:28 41.8453 -85.5742 82° East 531 611 41,000  Level Chicago Center
Wed 17:40:29 41.8642 -85.3756 83° East 529 609 41,000  Level Chicago Center
Wed 17:41:31 41.8839 -85.1781 82° East 527 606 41,000  Level Chicago Center
Wed 17:42:32 41.9039 -84.9814 82° East 531 611 41,000  Level Chicago Center
Wed 17:43:33 41.9236 -84.7839 82° East 535 616 41,000  Level Chicago Center
Wed 17:44:34 41.9436 -84.5878 82° East 531 611 41,000  Level Chicago Center
Wed 17:45:36 41.9628 -84.3856 83° East 528 608 41,000  Level Chicago Center
Wed 17:46:34 41.9833 -84.1836 82° East 529 609 41,000  Level Cleveland Center
Wed 17:47:35 42.0017 -83.9872 83° East 533 613 41,000  Level Cleveland Center
Wed 17:48:37 42.0211 -83.7911 82° East 535 616 41,000  Level Cleveland Center
Wed 17:49:38 42.0394 -83.5953 83° East 535 616 41,000  Level Cleveland Center
Wed 17:50:39 42.0597 -83.3861 82° East 537 618 41,000  Level Cleveland Center
Wed 17:51:40 42.0747 -83.2047 84° East 538 619 41,000  Level Cleveland Center
Wed 17:52:42 42.0981 -82.9678 82° East 538 619 41,000  Level Cleveland Center
Wed 17:53:43 42.1161 -82.7692 83° East 539 620 41,000  Level Cleveland Center
Wed 17:54:44 42.1311 -82.5708 84° East 537 618 41,000  Level Cleveland Center
Wed 17:55:46 42.1492 -82.3733 83° East 536 617 41,000  Level Cleveland Center
Wed 17:56:47 42.1658 -82.1744 83° East 535 616 41,000  Level Cleveland Center
Wed 17:57:48 42.1814 -81.9739 84° East 531 611 41,000  Level Cleveland Center
Wed 17:58:50 42.1972 -81.7714 84° East 535 616 41,000  Level Cleveland Center
Wed 17:59:51 42.2133 -81.5692 84° East 536 617 41,000  Level Cleveland Center
Wed 18:00:52 42.2286 -81.3683 84° East 533 613 41,000  Level Cleveland Center
Wed 18:01:54 42.2442 -81.1678 84° East 532 612 41,000  Level Cleveland Center
Wed 18:02:55 42.2614 -80.9308 84° East 535 616 41,000  Level Cleveland Center
Wed 18:03:56 42.2747 -80.7283 85° East 535 616 41,000  Level Cleveland Center
Wed 18:04:58 42.2897 -80.5267 84° East 535 616 41,000  Level Cleveland Center
Wed 18:05:59 42.3039 -80.3231 85° East 538 619 41,000  Level Cleveland Center
Wed 18:07:00 42.3175 -80.1194 85° East 539 620 41,000  Level Cleveland Center
Wed 18:08:02 42.3286 -79.9328 85° East 535 616 41,000  Level Cleveland Center
Wed 18:09:03 42.3403 -79.7317 85° East 535 616 41,000  Level Cleveland Center
Wed 18:10:04 42.3525 -79.5294 85° East 539 620 41,000  Level Cleveland Center
Wed 18:11:06 42.3669 -79.2875 85° East 541 623 41,000  Level Cleveland Center
Wed 18:12:07 42.3778 -79.0847 86° East 541 623 41,000  Level Cleveland Center
Wed 18:13:09 42.3897 -78.8814 85° East 545 627 41,000  Level Cleveland Center
Wed 18:14:10 42.3986 -78.7033 86° East 542 624 41,000  Level Cleveland Center
Wed 18:15:11 42.4114 -78.4603 86° East 540 621 41,000  Level Cleveland Center
Wed 18:16:13 42.4214 -78.2569 86° East 545 627 41,000 -244 Level Cleveland Center
Wed 18:17:14 42.4306 -78.0539 86° East 545 627 40,500 -683 Descending Cleveland Center
Wed 18:18:16 42.4400 -77.8517 86° East 545 627 39,600 -780 Descending Cleveland Center
Wed 18:19:17 42.4506 -77.6197 86° East 552 635 38,900 -1,024 Descending Cleveland Center
Wed 18:20:19 42.4597 -77.4031 87° East 559 643 37,500 -1,415 Descending Cleveland Center
Wed 18:21:20 42.4675 -77.1917 87° East 565 650 36,000 -1,463 Descending Cleveland Center
Wed 18:22:22 42.4756 -76.9811 87° East 565 650 34,500 -1,486 Descending Cleveland Center
Wed 18:23:09 42.4833 -76.8156 86° East 561 646 33,300 -818 Descending Boston Center
Wed 18:24:12 42.4903 -76.6069 87° East 557 641 33,000 -146 Descending Boston Center
Wed 18:25:12 42.4806 -76.3942 93° East 590 679 33,000 -712 Level Boston Center
Wed 18:26:10 42.4400 -76.1919 105° East 578 665 31,600 -1,820 Descending Boston Center
Wed 18:27:14 42.3986 -75.9908 106° East 565 650 29,300 -2,129 Descending Boston Center
Wed 18:28:14 42.3572 -75.7925 106° East 556 640 27,200 -2,132 Descending Boston Center
Wed 18:29:15 42.3158 -75.5939 106° East 554 638 25,000 -2,132 Descending Boston Center
Wed 18:30:15 42.2753 -75.4025 106° East 542 624 22,900 -2,050 Descending Boston Center
Wed 18:31:15 42.2369 -75.2242 106° East 511 588 20,900 -1,934 Descending Boston Center
Wed 18:32:16 42.1978 -75.0469 107° East 428 493 19,000 -1,426 Descending Boston Center
Wed 18:33:17 42.1606 -74.9203 112° Southeast 381 438 18,000 -600 Descending Boston Center
Wed 18:34:16 42.0911 -74.8164 132° Southeast 372 428 17,800 -885 Descending Boston Center
Wed 18:35:19 42.0136 -74.7036 133° Southeast 401 461 16,200 -1,756 Descending Boston Center
Wed 18:36:19 41.9444 -74.6019 132° Southeast 368 423 14,200 -1,983 Descending Boston Center
Wed 18:37:20 41.8756 -74.5047 134° Southeast 359 413 12,200 -1,574 Descending Boston Center
Wed 18:38:21 41.8081 -74.4094 134° Southeast 354 407 11,000 -595 Descending Boston Center
Wed 18:39:21 41.7411 -74.3147 133° Southeast 350 403 11,000 -545 Level Boston Center
Wed 18:40:22 41.6714 -74.2158 133° Southeast 340 391 9,900 -1,279 Descending Boston Center
Wed 18:41:23 41.6144 -74.1342 133° Southeast 302 348 8,400 -1,438 Descending Boston Center
Wed 18:42:23 41.5592 -74.0567 134° Southeast 289 333 7,000 -1,190 Descending Boston Center
Wed 18:43:24 41.5092 -73.9869 134° Southeast 255 293 6,000 -500 Descending Boston Center
Wed 18:44:23 41.4619 -73.9200 133° Southeast 247 284 6,000 50 Level Boston Center
Wed 18:45:24 41.4044 -73.8561 140° Southeast 271 312 6,100 -902 Climbing Boston Center
Wed 18:46:36 41.3333 -73.7833 142° Southeast 245 282 4,000 -1,429 Descending New York TRACON
Wed 18:47:30 41.2833 -73.7500 153° Southeast 231 266 3,100 -450 Descending New York TRACON
Wed 18:48:36 41.2167 -73.6833 143° Southeast 249 287 3,100  Level New York TRACON
Wed 18:49:36 41.1667 -73.6333 143° Southeast 247 284 3,100  Level New York TRACON
Wed 18:50:30 41.1167 -73.6000 153° Southeast 246 283 3,100 -53 Level New York TRACON
Wed 18:51:30 41.0667 -73.5500 143° Southeast 244 281 3,000 -190 Descending New York TRACON
Wed 18:52:36 41.0000 -73.5333 169° South 226 260 2,700 -250 Descending New York TRACON
Wed 18:53:30 40.9833 -73.6000 252° West 193 222 2,500 -368 Descending New York TRACON
Wed 18:54:30 41.0000 -73.6500 294° West 192 221 2,000 -684 Descending New York TRACON
Wed 18:55:24 41.0333 -73.6833 323° Northwest 141 162 1,200 -889 Descending New York TRACON
Wed 18:57:00 41.0667 -73.7000 246° West  Level FlightAware Approximate
Wed 19:04:00 41.0669 -73.7076 246° West  Level Estimated
Wed 19:05:00 41.0667 -73.7000 246° West  Level FlightAware Approximate

Login

Don't have an account? Register now (free) for customized features, flight alerts, and more!